Time;durP1;ratioP1;P1;durP2;ratioP2;P2;SDS_P1;SDS_P2;PMS_P1;PMS_P2;Temp;Humidity;BMP_temperature;BMP_pressure;BME280_temperature;BME280_humidity;BME280_pressure;Samples;Min_cycle;Max_cycle;Signal;HPM_P1;HPM_P2
2022/03/02 00:02:10;;;;;;;22.57;15.43;;;;;;;;;;4995077;28;20071;-63
2022/03/02 00:04:35;;;;;;;22.60;14.77;;;;;;;;;;4994895;28;20862;-63
2022/03/02 00:07:01;;;;;;;23.07;14.63;;;;;;;;;;4997908;28;20142;-63
2022/03/02 00:09:26;;;;;;;21.83;14.77;;;;;;;;;;4997894;28;20707;-63
2022/03/02 00:11:51;;;;;;;24.50;15.40;;;;;;;;;;4992990;28;20294;-63
2022/03/02 00:14:16;;;;;;;21.33;14.15;;;;;;;;;;4994335;28;20124;-63
2022/03/02 00:16:42;;;;;;;21.50;12.43;;;;;;;;;;4996338;28;20082;-63
2022/03/02 00:19:08;;;;;;;15.83;11.17;;;;;;;;;;4997101;28;20333;-63
2022/03/02 00:21:34;;;;;;;17.55;11.23;;;;;;;;;;4998472;28;20109;-63
2022/03/02 00:24:03;;;;;;;17.37;12.37;;;;;;;;;;4994196;28;20205;-63
2022/03/02 00:26:28;;;;;;;18.70;12.70;;;;;;;;;;4994500;28;20094;-64
2022/03/02 00:28:54;;;;;;;20.90;13.23;;;;;;;;;;4997463;28;20092;-63
2022/03/02 00:31:19;;;;;;;19.03;12.10;;;;;;;;;;5001371;28;20641;-63
2022/03/02 00:33:44;;;;;;;18.93;13.33;;;;;;;;;;5001813;28;20078;-63
2022/03/02 00:36:09;;;;;;;21.20;13.13;;;;;;;;;;4996116;28;20775;-63
2022/03/02 00:38:35;;;;;;;17.83;12.57;;;;;;;;;;4997619;28;20560;-63
2022/03/02 00:41:00;;;;;;;20.23;11.67;;;;;;;;;;4998769;28;20288;-64
2022/03/02 00:43:25;;;;;;;17.60;12.23;;;;;;;;;;4998396;28;20090;-64
2022/03/02 00:45:50;;;;;;;16.53;11.73;;;;;;;;;;4998090;28;20085;-63
2022/03/02 00:48:16;;;;;;;16.60;11.60;;;;;;;;;;4999928;28;20119;-64
2022/03/02 00:50:41;;;;;;;18.25;12.20;;;;;;;;;;5000529;28;20156;-63
2022/03/02 00:53:07;;;;;;;16.75;11.93;;;;;;;;;;5001963;28;20175;-64
2022/03/02 00:55:33;;;;;;;17.25;11.57;;;;;;;;;;4994821;28;20093;-64
2022/03/02 00:57:58;;;;;;;16.13;11.38;;;;;;;;;;5000183;28;20086;-61
2022/03/02 01:00:23;;;;;;;16.63;11.27;;;;;;;;;;4999723;28;20368;-61
2022/03/02 01:02:49;;;;;;;16.77;11.13;;;;;;;;;;5001477;28;20623;-62
2022/03/02 01:05:14;;;;;;;15.33;10.60;;;;;;;;;;4994724;28;20086;-63
2022/03/02 01:07:39;;;;;;;16.70;11.53;;;;;;;;;;4998583;28;20353;-63
2022/03/02 01:10:05;;;;;;;15.57;10.97;;;;;;;;;;5002385;28;20430;-63
2022/03/02 01:12:30;;;;;;;14.80;9.77;;;;;;;;;;5001811;28;20602;-64
2022/03/02 01:14:55;;;;;;;13.90;8.63;;;;;;;;;;5001463;28;20156;-64
2022/03/02 01:17:21;;;;;;;15.27;10.53;;;;;;;;;;5002306;28;20805;-64
2022/03/02 01:19:46;;;;;;;15.30;10.40;;;;;;;;;;5002087;28;20184;-64
2022/03/02 01:22:12;;;;;;;15.40;10.68;;;;;;;;;;5002008;28;20402;-64
2022/03/02 01:24:37;;;;;;;16.87;10.90;;;;;;;;;;4999829;28;20106;-64
2022/03/02 01:27:02;;;;;;;14.53;9.07;;;;;;;;;;5001402;28;20352;-64
2022/03/02 01:29:30;;;;;;;14.38;9.90;;;;;;;;;;4998375;28;20475;-64
2022/03/02 01:31:55;;;;;;;14.43;9.88;;;;;;;;;;5002251;28;20102;-64
2022/03/02 01:34:20;;;;;;;15.63;10.87;;;;;;;;;;5008174;28;20078;-64
2022/03/02 01:36:45;;;;;;;16.00;10.47;;;;;;;;;;4990781;28;20082;-64
2022/03/02 01:39:10;;;;;;;13.97;9.50;;;;;;;;;;5002039;28;20114;-64
2022/03/02 01:41:37;;;;;;;14.07;9.37;;;;;;;;;;4997011;28;20090;-65
2022/03/02 01:44:02;;;;;;;14.77;9.55;;;;;;;;;;4995261;28;20102;-64
2022/03/02 01:46:27;;;;;;;14.83;9.70;;;;;;;;;;4998736;28;20814;-64
2022/03/02 01:48:52;;;;;;;14.00;9.57;;;;;;;;;;4993261;28;20102;-65
2022/03/02 01:51:18;;;;;;;13.57;9.00;;;;;;;;;;5001262;28;20109;-64
2022/03/02 01:53:43;;;;;;;13.15;9.35;;;;;;;;;;5002891;28;20109;-64
2022/03/02 01:56:09;;;;;;;14.68;9.27;;;;;;;;;;4989140;28;20153;-65
2022/03/02 01:58:34;;;;;;;14.93;9.45;;;;;;;;;;5005161;28;20130;-64
2022/03/02 02:00:59;;;;;;;13.33;9.23;;;;;;;;;;4990194;28;20110;-65
2022/03/02 02:03:25;;;;;;;14.33;9.57;;;;;;;;;;5003910;28;20125;-66
2022/03/02 02:05:50;;;;;;;11.82;8.82;;;;;;;;;;4996854;28;20328;-64
2022/03/02 02:08:15;;;;;;;12.63;8.53;;;;;;;;;;4997662;28;20102;-65
2022/03/02 02:10:40;;;;;;;12.50;8.97;;;;;;;;;;4993171;28;20198;-65
2022/03/02 02:13:06;;;;;;;13.13;8.53;;;;;;;;;;4997945;28;20105;-64
2022/03/02 02:15:31;;;;;;;13.45;9.20;;;;;;;;;;4995184;28;20412;-65
2022/03/02 02:17:56;;;;;;;12.50;8.60;;;;;;;;;;4994488;28;20173;-65
2022/03/02 02:20:23;;;;;;;12.93;8.48;;;;;;;;;;5001904;28;20102;-64
2022/03/02 02:22:48;;;;;;;13.23;8.57;;;;;;;;;;5001668;28;20117;-64
2022/03/02 02:25:13;;;;;;;12.00;8.57;;;;;;;;;;5002129;28;20085;-62
2022/03/02 02:27:39;;;;;;;11.43;8.13;;;;;;;;;;4988761;28;20118;-63
2022/03/02 02:30:04;;;;;;;12.95;8.32;;;;;;;;;;5004382;28;20598;-63
2022/03/02 02:32:30;;;;;;;15.15;8.40;;;;;;;;;;5002183;28;20634;-63
2022/03/02 02:34:57;;;;;;;12.10;8.45;;;;;;;;;;4998767;28;20186;-63
2022/03/02 02:37:23;;;;;;;11.55;7.97;;;;;;;;;;5001025;28;20101;-63
2022/03/02 02:39:58;;;;;;;12.55;8.30;;;;;;;;;;5001962;28;20106;-63
2022/03/02 02:42:24;;;;;;;12.50;8.05;;;;;;;;;;5003324;28;20088;-63
2022/03/02 02:44:49;;;;;;;14.05;8.50;;;;;;;;;;4998749;28;20094;-64
2022/03/02 02:47:14;;;;;;;16.57;9.53;;;;;;;;;;4996217;28;20400;-63
2022/03/02 02:49:39;;;;;;;15.40;10.63;;;;;;;;;;5000505;28;20209;-63
2022/03/02 02:52:05;;;;;;;17.43;11.93;;;;;;;;;;4998904;28;20213;-63
2022/03/02 02:54:30;;;;;;;20.08;12.75;;;;;;;;;;4998628;28;20385;-64
2022/03/02 02:56:55;;;;;;;18.53;12.57;;;;;;;;;;5002586;28;20524;-64
2022/03/02 02:59:20;;;;;;;17.53;12.40;;;;;;;;;;4998591;28;20152;-63
2022/03/02 03:01:46;;;;;;;18.67;11.73;;;;;;;;;;4999305;28;20124;-64
2022/03/02 03:04:12;;;;;;;15.63;10.77;;;;;;;;;;4996900;28;20154;-63
2022/03/02 03:06:37;;;;;;;21.63;12.63;;;;;;;;;;4993746;28;20149;-64
2022/03/02 03:09:02;;;;;;;16.67;11.47;;;;;;;;;;5003228;28;20475;-65
2022/03/02 03:11:27;;;;;;;15.83;10.80;;;;;;;;;;4996363;28;20091;-64
2022/03/02 03:13:53;;;;;;;18.13;11.10;;;;;;;;;;5000683;28;20429;-64
2022/03/02 03:16:18;;;;;;;18.47;12.23;;;;;;;;;;4999771;28;20526;-64
2022/03/02 03:18:43;;;;;;;16.73;11.27;;;;;;;;;;5000074;28;20152;-65
2022/03/02 03:21:08;;;;;;;16.70;11.47;;;;;;;;;;5000185;28;20604;-65
2022/03/02 03:23:34;;;;;;;17.27;11.33;;;;;;;;;;4999881;28;20148;-64
2022/03/02 03:25:59;;;;;;;17.95;10.60;;;;;;;;;;4999917;28;20120;-65
2022/03/02 03:28:25;;;;;;;17.48;11.00;;;;;;;;;;5000266;28;20090;-65
2022/03/02 03:30:50;;;;;;;15.37;10.50;;;;;;;;;;4999990;28;20233;-64
2022/03/02 03:33:15;;;;;;;18.13;10.87;;;;;;;;;;4999021;28;20070;-64
2022/03/02 03:35:40;;;;;;;17.10;11.70;;;;;;;;;;4998479;28;20449;-65
2022/03/02 03:38:05;;;;;;;17.27;11.93;;;;;;;;;;5000418;28;20067;-64
2022/03/02 03:40:31;;;;;;;17.87;12.33;;;;;;;;;;4999960;28;20399;-65
2022/03/02 03:42:56;;;;;;;18.43;12.13;;;;;;;;;;4999857;28;20481;-65
2022/03/02 03:45:21;;;;;;;20.10;12.87;;;;;;;;;;5000075;28;20448;-65
2022/03/02 03:47:46;;;;;;;15.23;10.60;;;;;;;;;;4994430;28;20119;-65
2022/03/02 03:50:12;;;;;;;16.80;10.63;;;;;;;;;;4994701;28;20165;-64
2022/03/02 03:52:37;;;;;;;15.25;10.35;;;;;;;;;;4988816;28;20857;-65
2022/03/02 03:55:03;;;;;;;14.43;10.83;;;;;;;;;;4987684;28;20111;-65
2022/03/02 03:57:28;;;;;;;19.15;11.00;;;;;;;;;;4997518;28;20545;-65
2022/03/02 03:59:53;;;;;;;16.33;11.37;;;;;;;;;;5003145;28;20098;-64
2022/03/02 04:02:18;;;;;;;20.07;12.27;;;;;;;;;;5003028;28;20105;-65
2022/03/02 04:04:44;;;;;;;16.03;11.70;;;;;;;;;;5000123;28;20169;-65
2022/03/02 04:07:09;;;;;;;15.60;10.83;;;;;;;;;;4998455;28;20256;-65
2022/03/02 04:09:34;;;;;;;15.63;10.53;;;;;;;;;;5000755;28;20409;-64
2022/03/02 04:11:59;;;;;;;16.03;10.20;;;;;;;;;;5000868;28;20094;-65
2022/03/02 04:14:24;;;;;;;16.50;10.87;;;;;;;;;;5002997;28;20077;-65
2022/03/02 04:16:50;;;;;;;15.77;11.00;;;;;;;;;;4998695;28;20678;-65
2022/03/02 04:19:15;;;;;;;15.70;10.50;;;;;;;;;;4998208;28;20098;-65
2022/03/02 04:21:40;;;;;;;15.63;10.50;;;;;;;;;;5000489;28;20165;-65
2022/03/02 04:24:05;;;;;;;15.40;10.37;;;;;;;;;;5003766;28;20190;-65
2022/03/02 04:26:31;;;;;;;15.20;9.93;;;;;;;;;;4997028;28;20871;-65
2022/03/02 04:28:56;;;;;;;14.30;9.60;;;;;;;;;;5003051;28;20349;-65
2022/03/02 04:31:21;;;;;;;15.17;10.03;;;;;;;;;;4992060;28;20094;-65
2022/03/02 04:33:46;;;;;;;15.03;9.53;;;;;;;;;;5004442;28;20089;-65
2022/03/02 04:36:11;;;;;;;14.17;9.53;;;;;;;;;;5003793;28;20098;-65
2022/03/02 04:38:37;;;;;;;12.83;9.00;;;;;;;;;;5003924;28;20240;-66
2022/03/02 04:41:02;;;;;;;16.63;10.13;;;;;;;;;;5001991;28;20075;-65
2022/03/02 04:43:27;;;;;;;14.20;9.75;;;;;;;;;;5003784;28;20110;-65
2022/03/02 04:45:52;;;;;;;14.03;9.83;;;;;;;;;;4988964;28;20070;-64
2022/03/02 04:48:18;;;;;;;13.10;9.30;;;;;;;;;;5003640;28;20110;-65
2022/03/02 04:50:43;;;;;;;14.13;9.40;;;;;;;;;;4990389;28;20109;-65
2022/03/02 04:53:08;;;;;;;14.30;9.70;;;;;;;;;;5003952;28;20078;-65
2022/03/02 04:55:33;;;;;;;14.83;9.67;;;;;;;;;;4991844;28;20141;-65
2022/03/02 04:57:59;;;;;;;13.27;9.23;;;;;;;;;;5002484;28;20399;-65
2022/03/02 05:00:31;;;;;;;13.70;9.68;;;;;;;;;;5000210;28;20282;-65
2022/03/02 05:02:57;;;;;;;13.65;9.35;;;;;;;;;;5003233;28;20358;-65
2022/03/02 05:05:23;;;;;;;12.07;8.40;;;;;;;;;;5001534;28;20451;-65
2022/03/02 05:07:48;;;;;;;12.85;8.48;;;;;;;;;;4996856;28;20114;-65
2022/03/02 05:10:14;;;;;;;13.03;8.37;;;;;;;;;;5003442;28;20546;-65
2022/03/02 05:12:39;;;;;;;12.70;8.60;;;;;;;;;;4997614;28;20169;-65
2022/03/02 05:15:05;;;;;;;13.43;9.10;;;;;;;;;;5006365;28;20125;-65
2022/03/02 05:17:30;;;;;;;13.00;8.68;;;;;;;;;;4999932;28;20522;-65
2022/03/02 05:19:55;;;;;;;13.60;8.82;;;;;;;;;;4994879;28;20172;-65
2022/03/02 05:22:20;;;;;;;14.37;8.80;;;;;;;;;;5002559;28;20126;-65
2022/03/02 05:24:46;;;;;;;11.73;8.43;;;;;;;;;;5002698;28;20447;-65
2022/03/02 05:27:11;;;;;;;11.80;8.43;;;;;;;;;;4990196;28;20484;-65
2022/03/02 05:29:36;;;;;;;12.25;8.40;;;;;;;;;;5003139;28;20531;-65
2022/03/02 05:32:02;;;;;;;12.40;7.87;;;;;;;;;;4992116;28;20510;-65
2022/03/02 05:34:27;;;;;;;10.80;7.72;;;;;;;;;;5000116;28;20082;-65
2022/03/02 05:36:52;;;;;;;11.33;7.93;;;;;;;;;;5000558;28;20078;-65
2022/03/02 05:39:18;;;;;;;11.33;7.60;;;;;;;;;;5002680;28;20102;-65
2022/03/02 05:41:43;;;;;;;13.60;8.67;;;;;;;;;;5001140;28;20268;-64
2022/03/02 05:44:08;;;;;;;12.10;7.53;;;;;;;;;;5002377;28;20098;-65
2022/03/02 05:46:34;;;;;;;12.73;8.43;;;;;;;;;;5002811;28;20192;-65
2022/03/02 05:48:59;;;;;;;12.40;7.47;;;;;;;;;;4989575;28;20086;-65
2022/03/02 05:51:25;;;;;;;12.23;8.13;;;;;;;;;;5002277;28;20420;-65
2022/03/02 05:53:50;;;;;;;12.50;7.80;;;;;;;;;;4988950;28;20081;-65
2022/03/02 05:56:15;;;;;;;10.57;7.40;;;;;;;;;;5001968;28;20106;-65
2022/03/02 05:58:40;;;;;;;10.97;7.40;;;;;;;;;;4988922;28;20109;-65
2022/03/02 06:01:05;;;;;;;11.03;7.43;;;;;;;;;;5001776;28;20099;-65
2022/03/02 06:03:32;;;;;;;9.80;6.93;;;;;;;;;;4992850;28;20205;-65
2022/03/02 06:05:57;;;;;;;10.70;7.40;;;;;;;;;;5000066;28;20424;-61
2022/03/02 06:08:22;;;;;;;11.52;7.47;;;;;;;;;;4997710;28;20187;-61
2022/03/02 06:10:48;;;;;;;10.73;7.00;;;;;;;;;;5001459;28;20185;-61
2022/03/02 06:13:14;;;;;;;10.57;7.00;;;;;;;;;;4992060;28;20086;-61
2022/03/02 06:15:39;;;;;;;11.27;7.38;;;;;;;;;;4998692;28;20102;-61
2022/03/02 06:18:05;;;;;;;10.60;6.80;;;;;;;;;;4993629;28;20093;-61
2022/03/02 06:20:31;;;;;;;10.85;7.20;;;;;;;;;;4996612;28;20499;-61
2022/03/02 06:22:56;;;;;;;11.88;7.55;;;;;;;;;;5001166;28;20110;-62
2022/03/02 06:25:21;;;;;;;9.50;6.50;;;;;;;;;;5001257;28;20079;-63
2022/03/02 06:27:47;;;;;;;10.25;6.88;;;;;;;;;;4995378;28;20114;-62
2022/03/02 06:30:12;;;;;;;11.00;7.40;;;;;;;;;;5002170;28;20075;-63
2022/03/02 06:32:37;;;;;;;11.02;7.32;;;;;;;;;;5001398;28;20102;-63
2022/03/02 06:35:03;;;;;;;11.73;7.27;;;;;;;;;;4990151;28;20101;-63
2022/03/02 06:37:33;;;;;;;11.40;6.97;;;;;;;;;;5000040;28;20082;-63
2022/03/02 06:39:58;;;;;;;13.82;6.93;;;;;;;;;;4993652;28;20121;-64
2022/03/02 06:42:24;;;;;;;11.00;7.13;;;;;;;;;;5010946;28;20722;-63
2022/03/02 06:44:56;;;;;;;12.32;7.00;;;;;;;;;;4990315;28;20074;-63
2022/03/02 06:47:23;;;;;;;9.55;6.20;;;;;;;;;;4999515;28;20110;-63
2022/03/02 06:49:54;;;;;;;9.40;6.43;;;;;;;;;;4992221;28;20166;-63
2022/03/02 06:52:20;;;;;;;9.27;6.32;;;;;;;;;;4997027;28;20109;-63
2022/03/02 06:54:47;;;;;;;9.90;6.70;;;;;;;;;;4993957;28;20098;-63
2022/03/02 06:57:13;;;;;;;10.02;6.65;;;;;;;;;;4995039;28;20087;-64
2022/03/02 06:59:42;;;;;;;8.52;6.00;;;;;;;;;;5000451;28;20102;-61
2022/03/02 07:02:07;;;;;;;;;;;;;;;;;;5000822;28;20317;-60
2022/03/02 07:04:39;;;;;;;10.93;6.53;;;;;;;;;;4997347;28;19989;-61
2022/03/02 07:07:04;;;;;;;10.27;6.47;;;;;;;;;;4992822;28;20655;-63
2022/03/02 07:09:30;;;;;;;10.53;6.60;;;;;;;;;;5001380;28;20141;-63
2022/03/02 07:11:55;;;;;;;10.60;6.50;;;;;;;;;;4999423;28;20353;-63
2022/03/02 07:14:20;;;;;;;11.18;6.70;;;;;;;;;;5000068;28;20504;-63
2022/03/02 07:16:45;;;;;;;9.40;6.43;;;;;;;;;;4990419;28;20086;-63
2022/03/02 07:19:11;;;;;;;9.38;6.00;;;;;;;;;;5003027;28;20102;-63
2022/03/02 07:21:36;;;;;;;10.20;5.90;;;;;;;;;;5006144;28;20589;-63
2022/03/02 07:24:05;;;;;;;9.77;6.05;;;;;;;;;;5001095;28;20349;-63
2022/03/02 07:26:30;;;;;;;8.75;5.60;;;;;;;;;;5010114;28;20093;-63
2022/03/02 07:28:56;;;;;;;8.87;5.90;;;;;;;;;;5018802;28;20499;-63
2022/03/02 07:31:22;;;;;;;9.20;5.75;;;;;;;;;;5020390;28;20731;-63
2022/03/02 07:33:48;;;;;;;8.50;5.57;;;;;;;;;;5016610;28;20603;-63
2022/03/02 07:36:13;;;;;;;10.30;6.00;;;;;;;;;;5018428;28;20184;-63
2022/03/02 07:38:38;;;;;;;9.07;6.00;;;;;;;;;;5016509;28;20098;-63
2022/03/02 07:41:08;;;;;;;8.10;5.57;;;;;;;;;;5018136;28;20088;-63
2022/03/02 07:43:36;;;;;;;7.60;5.35;;;;;;;;;;5017996;28;20102;-63
2022/03/02 07:46:01;;;;;;;9.90;5.17;;;;;;;;;;5021021;28;20424;-63
2022/03/02 07:48:26;;;;;;;9.93;5.83;;;;;;;;;;5008014;28;20112;-63
2022/03/02 07:50:51;;;;;;;8.70;5.87;;;;;;;;;;5004100;28;20106;-63
2022/03/02 07:53:17;;;;;;;9.03;5.30;;;;;;;;;;4998101;28;20090;-63
2022/03/02 07:55:42;;;;;;;11.63;7.43;;;;;;;;;;5003048;28;20109;-63
2022/03/02 07:58:08;;;;;;;18.05;12.57;;;;;;;;;;5003859;28;20078;-63
2022/03/02 08:00:33;;;;;;;23.52;13.70;;;;;;;;;;5002293;28;20198;-63
2022/03/02 08:02:58;;;;;;;20.53;13.17;;;;;;;;;;5009815;28;20106;-63
2022/03/02 08:05:24;;;;;;;20.20;12.65;;;;;;;;;;5009871;28;20430;-63
2022/03/02 08:07:49;;;;;;;19.53;13.20;;;;;;;;;;4999879;28;20541;-63
2022/03/02 08:10:15;;;;;;;14.77;10.05;;;;;;;;;;5004633;28;21038;-63
2022/03/02 08:12:41;;;;;;;13.95;9.35;;;;;;;;;;5015399;28;20476;-63
2022/03/02 08:15:07;;;;;;;12.80;8.80;;;;;;;;;;5007579;28;20582;-63
2022/03/02 08:17:32;;;;;;;11.43;7.40;;;;;;;;;;5008382;28;20086;-63
2022/03/02 08:19:57;;;;;;;12.70;8.20;;;;;;;;;;4999037;28;20477;-62
2022/03/02 08:22:23;;;;;;;15.20;9.67;;;;;;;;;;4997488;28;20365;-63
2022/03/02 08:25:07;;;;;;;12.00;8.10;;;;;;;;;;4983088;28;20314;-64
2022/03/02 08:27:33;;;;;;;13.48;8.63;;;;;;;;;;4992344;28;20475;-63
2022/03/02 08:29:58;;;;;;;14.45;9.63;;;;;;;;;;5001253;28;20084;-63
2022/03/02 08:32:24;;;;;;;16.17;10.65;;;;;;;;;;4998199;28;20578;-63
2022/03/02 08:34:49;;;;;;;17.77;10.77;;;;;;;;;;5009575;28;20340;-63
2022/03/02 08:37:17;;;;;;;17.95;11.25;;;;;;;;;;4999907;28;20066;-63
2022/03/02 08:39:42;;;;;;;17.23;11.20;;;;;;;;;;5003541;28;20109;-63
2022/03/02 08:42:08;;;;;;;16.63;11.93;;;;;;;;;;5000588;28;20070;-63
2022/03/02 08:44:33;;;;;;;17.27;11.60;;;;;;;;;;4975387;28;20107;-63
2022/03/02 08:46:58;;;;;;;18.83;11.57;;;;;;;;;;4981017;28;20313;-63
2022/03/02 08:49:23;;;;;;;23.90;15.10;;;;;;;;;;4983912;28;20094;-63
2022/03/02 08:51:49;;;;;;;20.80;12.70;;;;;;;;;;4978856;28;20130;-63
2022/03/02 08:54:14;;;;;;;21.13;12.80;;;;;;;;;;4978896;28;20071;-63
2022/03/02 08:56:40;;;;;;;23.02;14.30;;;;;;;;;;4975657;28;20329;-63
2022/03/02 08:59:06;;;;;;;18.55;12.32;;;;;;;;;;4981144;28;20102;-63
2022/03/02 09:01:31;;;;;;;19.67;13.07;;;;;;;;;;4999001;28;20523;-63
2022/03/02 09:03:59;;;;;;;17.67;12.50;;;;;;;;;;4998878;28;20113;-63
2022/03/02 09:06:25;;;;;;;15.93;10.82;;;;;;;;;;4993166;28;20192;-63
2022/03/02 09:08:50;;;;;;;16.05;11.65;;;;;;;;;;4974418;28;20094;-63
2022/03/02 09:11:15;;;;;;;18.87;11.10;;;;;;;;;;4979000;28;20111;-64
2022/03/02 09:13:40;;;;;;;19.53;13.13;;;;;;;;;;4973281;28;20166;-65
2022/03/02 09:16:06;;;;;;;18.23;11.77;;;;;;;;;;4986183;28;20181;-64
2022/03/02 09:18:31;;;;;;;19.33;13.15;;;;;;;;;;4982611;28;20233;-65
2022/03/02 09:20:59;;;;;;;15.50;10.88;;;;;;;;;;4989236;28;20097;-65
2022/03/02 09:23:25;;;;;;;14.65;9.32;;;;;;;;;;4979425;28;20105;-64
2022/03/02 09:25:50;;;;;;;17.45;12.93;;;;;;;;;;4988535;28;20568;-65
2022/03/02 09:28:16;;;;;;;16.30;11.50;;;;;;;;;;4989964;28;20110;-64
2022/03/02 09:30:41;;;;;;;13.43;9.23;;;;;;;;;;4983246;28;20093;-64
2022/03/02 09:33:07;;;;;;;17.13;9.93;;;;;;;;;;5002639;28;20447;-64
2022/03/02 09:35:33;;;;;;;16.20;10.68;;;;;;;;;;4984187;28;20198;-64
2022/03/02 09:37:59;;;;;;;13.10;9.47;;;;;;;;;;4983724;28;20209;-64
2022/03/02 09:40:24;;;;;;;22.67;16.38;;;;;;;;;;4992288;28;20157;-64
2022/03/02 09:42:59;;;;;;;18.87;13.10;;;;;;;;;;4995608;28;20114;-63
2022/03/02 09:45:26;;;;;;;17.52;11.23;;;;;;;;;;5004575;28;20077;-64
2022/03/02 09:47:56;;;;;;;16.23;9.60;;;;;;;;;;5001669;28;20164;-64
2022/03/02 09:50:22;;;;;;;21.35;12.32;;;;;;;;;;5007643;28;20078;-69
2022/03/02 09:52:47;;;;;;;18.05;11.68;;;;;;;;;;5007485;28;20603;-69
2022/03/02 09:55:13;;;;;;;14.32;9.35;;;;;;;;;;5000467;28;20607;-70
2022/03/02 09:57:45;;;;;;;20.73;14.52;;;;;;;;;;5002573;28;20109;-66
2022/03/02 10:00:12;;;;;;;30.58;19.60;;;;;;;;;;5000840;28;20193;-63
2022/03/02 10:02:38;;;;;;;20.85;13.88;;;;;;;;;;5008671;28;20105;-62
2022/03/02 10:05:10;;;;;;;13.38;8.30;;;;;;;;;;5012830;28;20591;-62
2022/03/02 10:07:36;;;;;;;26.90;17.42;;;;;;;;;;5011908;28;20117;-69
2022/03/02 10:10:08;;;;;;;27.63;18.75;;;;;;;;;;5002626;28;20442;-69
2022/03/02 10:12:33;;;;;;;31.30;19.25;;;;;;;;;;5001745;28;20106;-69
2022/03/02 10:14:59;;;;;;;31.67;21.23;;;;;;;;;;5012043;28;20102;-68
2022/03/02 10:17:26;;;;;;;20.08;14.38;;;;;;;;;;5007249;28;20333;-69
2022/03/02 10:19:52;;;;;;;25.40;17.90;;;;;;;;;;5002069;28;20737;-69
2022/03/02 10:22:17;;;;;;;28.17;16.10;;;;;;;;;;5001508;28;20483;-69
2022/03/02 10:24:44;;;;;;;24.90;18.97;;;;;;;;;;5002769;28;20069;-69
2022/03/02 10:27:09;;;;;;;20.10;14.82;;;;;;;;;;4995227;28;20128;-69
2022/03/02 10:29:48;;;;;;;21.17;15.15;;;;;;;;;;4971706;28;20059;-70
2022/03/02 10:32:15;;;;;;;18.58;13.70;;;;;;;;;;4971247;28;20095;-69
2022/03/02 10:34:41;;;;;;;18.40;12.63;;;;;;;;;;4989228;28;20209;-70
2022/03/02 10:37:06;;;;;;;23.10;16.37;;;;;;;;;;4982566;28;20249;-69
2022/03/02 10:39:50;;;;;;;22.33;14.80;;;;;;;;;;5003940;28;20344;-69
2022/03/02 10:42:24;;;;;;;20.50;13.40;;;;;;;;;;5019592;28;20074;-70
2022/03/02 10:45:10;;;;;;;22.33;14.82;;;;;;;;;;4983618;28;20149;-70
2022/03/02 10:47:36;;;;;;;20.63;14.50;;;;;;;;;;4962902;28;20172;-69
2022/03/02 10:50:02;;;;;;;23.48;16.58;;;;;;;;;;4978639;28;20110;-69
2022/03/02 10:52:28;;;;;;;26.00;18.05;;;;;;;;;;4998096;28;20117;-70
2022/03/02 10:54:54;;;;;;;23.67;16.73;;;;;;;;;;5006438;28;20593;-70
2022/03/02 10:57:19;;;;;;;11.20;6.72;;;;;;;;;;5006017;28;20070;-70
2022/03/02 10:59:45;;;;;;;22.67;13.50;;;;;;;;;;5000345;28;20603;-70
2022/03/02 11:02:10;;;;;;;24.60;16.60;;;;;;;;;;4982503;28;20516;-70
2022/03/02 11:04:37;;;;;;;25.80;16.85;;;;;;;;;;5001460;28;20341;-68
2022/03/02 11:07:02;;;;;;;24.55;17.90;;;;;;;;;;5001162;28;20113;-67
2022/03/02 11:09:27;;;;;;;23.65;16.35;;;;;;;;;;5010364;28;20074;-70
2022/03/02 11:11:53;;;;;;;17.83;11.70;;;;;;;;;;5009295;28;20110;-70
2022/03/02 11:14:18;;;;;;;22.27;15.63;;;;;;;;;;4991365;28;20079;-70
2022/03/02 11:16:45;;;;;;;21.80;16.90;;;;;;;;;;4975767;28;20544;-71
2022/03/02 11:19:11;;;;;;;18.88;13.55;;;;;;;;;;5003299;28;20094;-70
2022/03/02 11:21:37;;;;;;;16.30;11.55;;;;;;;;;;5015652;28;20073;-70
2022/03/02 11:24:04;;;;;;;21.55;15.40;;;;;;;;;;4995026;28;20113;-70
2022/03/02 11:26:30;;;;;;;19.60;13.43;;;;;;;;;;4985408;28;21132;-70
2022/03/02 11:28:56;;;;;;;17.23;12.35;;;;;;;;;;4974830;28;20083;-70
2022/03/02 11:31:30;;;;;;;14.88;10.32;;;;;;;;;;4987508;28;20121;-71
2022/03/02 11:34:10;;;;;;;20.20;14.80;;;;;;;;;;5009446;28;20597;-71
2022/03/02 11:36:36;;;;;;;21.50;14.27;;;;;;;;;;4994755;28;20103;-70
2022/03/02 11:39:01;;;;;;;24.58;16.73;;;;;;;;;;4990982;28;20507;-71
2022/03/02 11:41:32;;;;;;;26.47;14.17;;;;;;;;;;4977705;28;20432;-70
2022/03/02 11:43:57;;;;;;;19.25;13.05;;;;;;;;;;4996583;28;20100;-70
2022/03/02 11:46:22;;;;;;;15.97;10.77;;;;;;;;;;4993165;28;20074;-67
2022/03/02 11:48:47;;;;;;;18.53;13.43;;;;;;;;;;4994564;28;20159;-69
2022/03/02 11:51:18;;;;;;;19.77;15.10;;;;;;;;;;4988556;28;20480;-70
2022/03/02 11:53:43;;;;;;;21.38;14.80;;;;;;;;;;5013243;28;20098;-70
2022/03/02 11:56:09;;;;;;;15.43;10.57;;;;;;;;;;4983763;28;20187;-70
2022/03/02 11:58:54;;;;;;;14.32;9.25;;;;;;;;;;5007102;28;20514;-71
2022/03/02 12:01:19;;;;;;;19.38;13.00;;;;;;;;;;4992756;28;20166;-71
2022/03/02 12:04:00;;;;;;;16.20;12.80;;;;;;;;;;4986111;28;20526;-71
2022/03/02 12:06:26;;;;;;;17.50;10.68;;;;;;;;;;4982275;28;20177;-71
2022/03/02 12:08:52;;;;;;;19.25;13.10;;;;;;;;;;4974144;28;20232;-72
2022/03/02 12:11:22;;;;;;;22.83;14.10;;;;;;;;;;4978766;28;20090;-72
2022/03/02 12:14:00;;;;;;;14.93;9.32;;;;;;;;;;4993239;28;20092;-72
2022/03/02 12:16:42;;;;;;;9.68;6.38;;;;;;;;;;5008983;28;20069;-71
2022/03/02 12:19:23;;;;;;;10.48;6.85;;;;;;;;;;5015903;28;20191;-70
2022/03/02 12:21:49;;;;;;;10.43;5.70;;;;;;;;;;4973254;28;20199;-71
2022/03/02 12:24:30;;;;;;;16.63;7.88;;;;;;;;;;4973313;28;20176;-71
2022/03/02 12:27:02;;;;;;;14.38;8.60;;;;;;;;;;4984011;28;20087;-72
2022/03/02 12:29:27;;;;;;;17.73;8.60;;;;;;;;;;5024459;28;20512;-70
2022/03/02 12:32:05;;;;;;;13.15;7.88;;;;;;;;;;5024095;28;20088;-71
2022/03/02 12:34:41;;;;;;;19.98;11.30;;;;;;;;;;5007902;28;21024;-71
2022/03/02 12:37:06;;;;;;;14.68;11.35;;;;;;;;;;4977644;28;20093;-71
2022/03/02 12:39:31;;;;;;;15.77;10.50;;;;;;;;;;4984106;28;20117;-72
2022/03/02 12:41:57;;;;;;;14.35;10.10;;;;;;;;;;4975377;28;20068;-71
2022/03/02 12:44:22;;;;;;;18.08;11.43;;;;;;;;;;4981187;28;20382;-71
2022/03/02 12:46:51;;;;;;;16.90;11.40;;;;;;;;;;4979722;28;20504;-70
2022/03/02 12:49:17;;;;;;;15.52;10.80;;;;;;;;;;4973519;28;20490;-71
2022/03/02 12:51:46;;;;;;;17.58;11.63;;;;;;;;;;4977423;28;20152;-71
2022/03/02 12:54:11;;;;;;;15.02;9.35;;;;;;;;;;4983063;28;20040;-71
2022/03/02 12:56:37;;;;;;;8.27;4.32;;;;;;;;;;5000102;28;20042;-70
2022/03/02 12:59:02;;;;;;;13.43;9.07;;;;;;;;;;4992057;28;20060;-72
2022/03/02 13:01:27;;;;;;;10.67;7.57;;;;;;;;;;5003436;28;20658;-71
2022/03/02 13:03:52;;;;;;;11.07;7.43;;;;;;;;;;4997286;28;20034;-71
2022/03/02 13:06:21;;;;;;;9.80;7.40;;;;;;;;;;4997068;28;20018;-71
2022/03/02 13:09:15;;;;;;;9.77;5.80;;;;;;;;;;5005236;28;20050;-71
2022/03/02 13:11:41;;;;;;;13.20;5.10;;;;;;;;;;4967983;28;20070;-72
2022/03/02 13:14:25;;;;;;;7.77;5.07;;;;;;;;;;5004331;28;20060;-72
2022/03/02 13:16:50;;;;;;;8.48;5.60;;;;;;;;;;4994300;28;20392;-73
2022/03/02 13:19:16;;;;;;;12.10;6.20;;;;;;;;;;4992905;28;20034;-73
2022/03/02 13:21:41;;;;;;;9.63;6.25;;;;;;;;;;4992062;28;20725;-73
2022/03/02 13:24:07;;;;;;;8.13;5.37;;;;;;;;;;4993430;28;20038;-74
2022/03/02 13:26:32;;;;;;;9.57;6.10;;;;;;;;;;4997089;28;20400;-73
2022/03/02 13:28:59;;;;;;;8.77;4.90;;;;;;;;;;4994937;28;20022;-73
2022/03/02 13:31:24;;;;;;;11.00;6.18;;;;;;;;;;5003512;28;20407;-72
2022/03/02 13:33:49;;;;;;;;;;;;;;;;;;4991296;28;20022;-72
2022/03/02 13:36:16;;;;;;;4.65;2.70;;;;;;;;;;4996532;28;20055;-72
2022/03/02 13:38:42;;;;;;;6.78;4.53;;;;;;;;;;4995441;28;20046;-72
2022/03/02 13:41:08;;;;;;;8.48;5.68;;;;;;;;;;4995126;28;20735;-70
2022/03/02 13:43:34;;;;;;;4.97;3.30;;;;;;;;;;4996476;28;20037;-71
2022/03/02 13:45:59;;;;;;;8.13;5.20;;;;;;;;;;4990411;28;20021;-71
2022/03/02 13:48:25;;;;;;;5.17;4.17;;;;;;;;;;4990005;28;20038;-70
2022/03/02 13:50:54;;;;;;;7.47;5.47;;;;;;;;;;4996521;28;20031;-71
2022/03/02 13:53:30;;;;;;;7.95;5.20;;;;;;;;;;4996623;28;20714;-69
2022/03/02 13:56:01;;;;;;;6.88;4.45;;;;;;;;;;4991346;28;20652;-70
2022/03/02 13:58:27;;;;;;;6.88;4.60;;;;;;;;;;4985670;28;20010;-70
2022/03/02 14:00:52;;;;;;;6.63;4.50;;;;;;;;;;4993819;28;20034;-69
2022/03/02 14:03:44;;;;;;;5.20;4.00;;;;;;;;;;4996143;28;20033;-70
2022/03/02 14:06:10;;;;;;;3.67;2.58;;;;;;;;;;4992615;28;20026;-70
2022/03/02 14:08:42;;;;;;;5.45;3.85;;;;;;;;;;4998445;28;20112;-69
2022/03/02 14:11:08;;;;;;;5.15;3.40;;;;;;;;;;4991843;28;20038;-70
2022/03/02 14:13:34;;;;;;;5.45;4.20;;;;;;;;;;4996349;28;20023;-69
2022/03/02 14:16:05;;;;;;;3.87;3.10;;;;;;;;;;4995092;28;20038;-69
2022/03/02 14:18:30;;;;;;;5.43;3.58;;;;;;;;;;4989184;28;20026;-69
2022/03/02 14:20:56;;;;;;;5.83;3.03;;;;;;;;;;4991464;28;20329;-69
2022/03/02 14:23:21;;;;;;;5.70;3.37;;;;;;;;;;4995811;28;20196;-70